Terminal Aerodrome Forecast
Issued by NWS

Home | Current Version | Previous Version | Text Only | Print | Product List | Glossary On
Versions: 1 2 3 4 5 6 7 8 9 10 11 12 13 14 15 16 17 18 19 20 21 22 23 24 25 26 27 28
000
FTUS45 KTWC 252300
TAFOLS
TAF
KOLS 252339Z 2600/2624 21020G30KT P6SM SCT050 OVC070
     FM260200 24013G20KT P6SM -SHRA SCT025 BKN040
     FM260500 26006KT P6SM VCSH FEW030 BKN060
     FM260700 VRB04KT P6SM SCT060 BKN090
     FM261500 VRB03KT P6SM SCT090
     FM262000 30008KT P6SM FEW100=

USA.gov is the U.S. government's official web portal to all federal, state and local government web resources and services.